KSFF/SFF METAR and TAF weather

Enter ICAO airport designator
Station Type Date Time Source
KSFF METAR 2019/04/24 15:53 UTC NOAA

KSFF 241553Z 26004KT 10SM CLR 10/01 A3014 RMK AO2 SLP204 T01000006


Station Type Date Time Source
KSFF Decoded METAR 2019/04/24 15:53 UTC NOAA

FELTS FIELD, WA, United States (KSFF) 47-41N 117-19W 609M
Apr 24, 2019 - 11:53 AM EDT / 2019.04.24 1553 UTC
Wind: from the W (260 degrees) at 5 MPH (4 KT):0
Visibility: 10 mile(s):0
Sky conditions: clear
Temperature: 50.0 F (10.0 C)
Dew Point: 33.1 F (0.6 C)
Relative Humidity: 51%
Pressure (altimeter): 30.14 in. Hg (1020 hPa)
ob: KSFF 241553Z 26004KT 10SM CLR 10/01 A3014 RMK AO2 SLP204 T01000006
cycle: 16

Station Type Date Time Source
KSFF TAF 2019/04/24 12:27 UTC NOAA

TAF KSFF 241125Z 2412/2512 23005KT P6SM FEW050 SCT200
FM242000 24009G15KT P6SM FEW050
FM250300 VRB03KT P6SM SKC
FM250800 VRB02KT P6SM SCT200

Example: see airport list